Date,TemperatureHighF,TemperatureAvgF,TemperatureLowF,DewpointHighF,DewpointAvgF,DewpointLowF,HumidityHigh,HumidityAvg,HumidityLow,PressureMaxIn,PressureMinIn,WindSpeedMaxMPH,WindSpeedAvgMPH,GustSpeedMaxMPH,PrecipitationSumIn
2013-5-1,84,70,54,65,58,48,83,66,49,30.02,29.83,13,2,13,0.00
2013-5-2,64,50,36,59,45,33,89,84,79,30.23,30.00,12,2,12,0.19
2013-5-3,37,34,33,35,32,30,92,91,89,30.22,29.89,13,3,13,0.70
2013-5-4,47,40,33,40,36,31,93,86,74,29.96,29.83,5,1,5,0.27
2013-5-5,61,50,41,52,44,37,89,82,71,30.04,29.92,13,3,13,0.00
2013-5-6,69,58,51,59,52,48,92,82,66,30.03,29.91,11,3,11,0.00
2013-5-7,79,63,45,62,53,42,93,71,50,30.04,29.90,10,1,10,0.00
2013-5-8,75,62,49,63,55,45,91,79,64,30.02,29.84,7,1,7,0.03
2013-5-9,77,66,58,65,59,54,92,79,62,29.94,29.81,19,4,19,0.90
2013-5-10,67,61,50,61,56,47,92,85,75,30.03,29.85,9,1,9,0.00
2013-5-11,72,58,44,59,47,38,93,69,39,30.19,30.00,13,2,13,0.00
2013-5-12,69,54,36,46,40,32,88,63,37,30.25,30.08,9,1,9,0.00
2013-5-13,81,63,44,59,49,40,88,64,42,30.17,29.95,12,2,12,0.00
2013-5-14,89,73,56,62,55,51,83,56,34,29.99,29.83,16,-296,16,0.00
2013-5-15,81,68,57,69,60,50,90,74,61,29.95,29.82,17,-104,17,0.19
2013-5-16,66,64,62,62,61,59,92,89,84,29.87,29.80,8,-34,8,0.06
2013-5-17,80,69,62,67,63,59,93,82,62,29.91,29.79,6,-656,6,0.00
2013-5-18,83,73,64,74,68,60,91,83,73,29.92,29.75,8,-220,8,0.00
2013-5-19,87,77,70,73,69,66,92,77,52,29.81,29.57,20,3,20,0.03
2013-5-20,75,68,62,69,64,58,92,86,70,29.81,29.64,19,2,19,1.11
2013-5-21,70,64,61,64,60,57,92,86,75,29.81,29.54,18,3,18,0.00
2013-5-22,72,64,55,60,57,53,92,79,64,29.91,29.72,14,4,14,0.00
2013-5-23,75,63,52,62,56,49,92,78,64,30.14,29.91,9,1,9,0.00
2013-5-24,74,64,53,54,51,47,87,64,42,30.26,30.11,8,3,8,0.00
2013-5-25,81,68,56,66,56,46,76,66,58,30.20,29.99,10,2,10,0.00
2013-5-26,85,74,64,70,64,59,85,72,55,30.09,29.89,14,3,14,0.00
2013-5-27,84,75,67,72,66,61,86,75,65,29.94,29.70,23,4,23,0.00
2013-5-28,85,75,70,72,66,63,82,75,60,29.81,29.69,14,3,14,0.00
2013-5-29,81,75,69,69,66,63,84,73,62,29.85,29.67,12,3,12,0.00
2013-5-30,82,72,63,70,64,60,91,79,61,29.82,29.66,23,4,23,2.47
2013-5-31,83,76,66,75,70,61,92,83,74,29.86,29.64,14,-777,14,1.09